createdAt,value
2022-12-08T00:01:30.289Z,26.75
2022-12-08T00:03:59.369Z,26.15
2022-12-08T00:06:49.866Z,25.60
2022-12-08T00:09:46.459Z,24.88
2022-12-08T00:12:16.637Z,24.95
2022-12-08T00:14:46.660Z,25.40
2022-12-08T00:17:16.185Z,25.80
2022-12-08T00:19:46.240Z,26.45
2022-12-08T00:22:14.845Z,25.10
2022-12-08T00:24:44.908Z,26.13
2022-12-08T00:29:40.857Z,27.10
2022-12-08T00:32:08.291Z,27.33
2022-12-08T00:34:35.853Z,25.90
2022-12-08T00:37:03.488Z,26.30
2022-12-08T00:39:31.201Z,26.13
2022-12-08T00:42:13.696Z,26.08
2022-12-08T00:44:42.159Z,25.83
2022-12-08T00:47:10.053Z,26.67
2022-12-08T00:49:37.361Z,25.63
2022-12-08T00:52:04.942Z,24.73
2022-12-08T00:54:32.269Z,26.15
2022-12-08T00:56:59.543Z,25.13
2022-12-08T00:59:26.826Z,25.50
2022-12-08T01:01:54.070Z,24.85
2022-12-08T01:04:21.820Z,24.48
2022-12-08T01:06:49.593Z,24.42
2022-12-08T01:09:17.895Z,23.50
2022-12-08T01:11:45.617Z,23.02
2022-12-08T01:14:19.707Z,22.85
2022-12-08T01:16:47.540Z,22.63
2022-12-08T01:19:16.019Z,22.35
2022-12-08T01:21:44.570Z,23.77
2022-12-08T01:24:14.256Z,23.20
2022-12-08T01:26:41.656Z,24.17
2022-12-08T01:29:09.429Z,22.75
2022-12-08T01:31:37.146Z,22.58
2022-12-08T01:34:05.172Z,24.02
2022-12-08T01:36:33.968Z,23.92
2022-12-08T01:39:02.301Z,27.17
2022-12-08T01:41:32.149Z,27.10
2022-12-08T01:44:02.473Z,27.90
2022-12-08T01:46:33.127Z,27.52
2022-12-08T01:49:11.469Z,28.63
2022-12-08T01:51:51.795Z,29.63
2022-12-08T01:54:19.842Z,29.73
2022-12-08T01:56:53.120Z,30.73
2022-12-08T01:59:20.488Z,30.30
2022-12-08T02:01:51.935Z,30.38
2022-12-08T02:04:19.328Z,29.85
2022-12-08T02:06:47.179Z,30.20
2022-12-08T02:09:14.645Z,30.73
2022-12-08T02:11:42.113Z,29.45
2022-12-08T02:14:10.641Z,31.05
2022-12-08T02:16:42.168Z,29.85
2022-12-08T02:19:49.704Z,29.27
2022-12-08T02:22:22.323Z,29.77
2022-12-08T02:25:07.396Z,29.35
2022-12-08T02:27:47.183Z,29.67
2022-12-08T02:30:38.485Z,30.60
2022-12-08T02:33:24.315Z,28.48
2022-12-08T02:36:05.288Z,30.23
2022-12-08T02:38:44.955Z,32.38
2022-12-08T02:41:26.460Z,35.22
2022-12-08T02:44:22.829Z,34.42
2022-12-08T02:46:56.396Z,36.05
2022-12-08T02:49:29.454Z,40.33
2022-12-08T02:52:07.163Z,44.53
2022-12-08T02:54:35.611Z,44.65
2022-12-08T02:57:12.884Z,44.58
2022-12-08T03:00:01.692Z,43.10
2022-12-08T03:02:35.512Z,34.00
2022-12-08T03:05:18.188Z,34.05
2022-12-08T03:08:03.910Z,33.33
2022-12-08T03:10:37.965Z,33.30
2022-12-08T03:13:13.162Z,33.10
2022-12-08T03:15:41.753Z,32.28
2022-12-08T03:18:11.301Z,31.77
2022-12-08T03:20:39.638Z,30.85
2022-12-08T03:23:09.831Z,30.50
2022-12-08T03:25:42.204Z,30.20
2022-12-08T03:28:09.832Z,30.33
2022-12-08T03:30:39.546Z,30.33
2022-12-08T03:33:16.293Z,30.88
2022-12-08T03:35:44.399Z,29.67
2022-12-08T03:38:14.405Z,30.50
2022-12-08T03:43:09.383Z,28.60
2022-12-08T03:45:36.791Z,29.52
2022-12-08T03:48:04.103Z,28.45
2022-12-08T03:50:31.354Z,29.15
2022-12-08T03:52:58.635Z,30.00
2022-12-08T03:55:25.979Z,30.02
2022-12-08T03:57:53.260Z,29.55
2022-12-08T04:00:20.664Z,31.10
2022-12-08T04:02:48.003Z,31.70
2022-12-08T04:05:15.379Z,30.52
2022-12-08T04:07:43.628Z,30.42
2022-12-08T04:10:11.247Z,29.17
2022-12-08T04:12:38.570Z,29.15
2022-12-08T04:15:06.231Z,28.35
2022-12-08T04:17:33.483Z,28.38
2022-12-08T04:20:00.841Z,27.85
2022-12-08T04:22:28.267Z,27.80
2022-12-08T04:24:55.581Z,29.83
2022-12-08T04:27:22.808Z,27.95
2022-12-08T04:29:50.025Z,28.25
2022-12-08T04:32:17.257Z,29.13
2022-12-08T04:34:44.513Z,27.98
2022-12-08T04:37:11.705Z,29.10
2022-12-08T04:39:38.946Z,28.23
2022-12-08T04:42:06.204Z,30.02
2022-12-08T04:44:33.912Z,28.65
2022-12-08T04:47:01.216Z,27.95
2022-12-08T04:49:28.613Z,26.92
2022-12-08T04:51:55.874Z,27.52
2022-12-08T04:54:23.081Z,27.95
2022-12-08T04:56:50.348Z,27.80
2022-12-08T04:59:17.783Z,28.15
2022-12-08T05:01:45.430Z,26.17
2022-12-08T05:04:12.796Z,27.35
2022-12-08T05:06:40.058Z,27.67
2022-12-08T05:09:07.790Z,27.25
2022-12-08T05:11:34.982Z,26.23
2022-12-08T05:14:02.227Z,25.95
2022-12-08T05:16:29.611Z,25.83
2022-12-08T05:18:56.865Z,24.70
2022-12-08T05:21:24.166Z,26.58
2022-12-08T05:23:51.530Z,25.52
2022-12-08T05:26:18.779Z,24.13
2022-12-08T05:28:46.123Z,24.98
2022-12-08T05:31:15.063Z,24.85
2022-12-08T05:33:43.204Z,25.63
2022-12-08T05:36:12.650Z,25.95
2022-12-08T05:38:40.138Z,25.80
2022-12-08T05:41:07.875Z,25.20
2022-12-08T05:43:35.295Z,25.65
2022-12-08T05:46:02.692Z,26.15
2022-12-08T05:48:29.946Z,27.10
2022-12-08T05:50:57.346Z,26.52
2022-12-08T05:53:24.713Z,26.48
2022-12-08T05:55:51.944Z,26.20
2022-12-08T05:58:20.686Z,26.85
2022-12-08T06:00:49.324Z,24.35
2022-12-08T06:03:18.338Z,23.13
2022-12-08T06:05:46.815Z,24.35
2022-12-08T06:08:14.296Z,24.70
2022-12-08T06:10:43.845Z,23.42
2022-12-08T06:13:11.081Z,24.27
2022-12-08T06:15:38.848Z,22.40
2022-12-08T06:18:07.142Z,24.50
2022-12-08T06:20:34.437Z,23.20
2022-12-08T06:23:02.098Z,23.70
2022-12-08T06:25:29.404Z,24.27
2022-12-08T06:27:56.635Z,24.48
2022-12-08T06:30:23.930Z,25.05
2022-12-08T06:32:51.261Z,23.83
2022-12-08T06:35:18.486Z,24.67
2022-12-08T06:37:45.767Z,25.95
2022-12-08T06:40:13.368Z,25.52
2022-12-08T06:42:47.274Z,24.35
2022-12-08T06:45:16.345Z,23.88
2022-12-08T06:47:44.172Z,26.00
2022-12-08T06:50:12.728Z,24.50
2022-12-08T06:52:51.653Z,24.95
2022-12-08T06:55:50.843Z,24.00
2022-12-08T06:58:08.872Z,19.65
2022-12-08T07:00:36.137Z,19.10
2022-12-08T07:03:03.470Z,19.48
2022-12-08T07:05:30.723Z,19.35
2022-12-08T07:07:58.110Z,18.73
2022-12-08T07:10:25.375Z,18.10
2022-12-08T07:12:52.669Z,18.23
2022-12-08T07:15:20.429Z,18.00
2022-12-08T07:17:48.260Z,19.02
2022-12-08T07:20:15.877Z,18.80
2022-12-08T07:22:52.155Z,18.63
2022-12-08T07:25:19.987Z,19.38
2022-12-08T07:27:47.930Z,20.20
2022-12-08T07:30:15.235Z,18.85
2022-12-08T07:32:42.538Z,18.35
2022-12-08T07:35:10.320Z,17.45
2022-12-08T07:37:38.230Z,18.63
2022-12-08T07:40:07.822Z,18.88
2022-12-08T07:42:35.595Z,18.92
2022-12-08T07:45:02.943Z,18.65
2022-12-08T07:47:30.203Z,17.80
2022-12-08T07:49:57.556Z,17.30
2022-12-08T07:52:24.865Z,18.50
2022-12-08T07:54:52.137Z,17.65
2022-12-08T07:57:19.341Z,16.05
2022-12-08T07:59:46.689Z,20.13
2022-12-08T08:02:26.220Z,25.88
2022-12-08T08:04:54.358Z,19.98
2022-12-08T08:07:21.804Z,17.95
2022-12-08T08:09:49.490Z,24.13
2022-12-08T08:12:32.916Z,20.15
2022-12-08T08:15:01.662Z,17.42
2022-12-08T08:17:29.917Z,16.75
2022-12-08T08:19:57.455Z,17.40
2022-12-08T08:22:26.703Z,16.23
2022-12-08T08:24:54.377Z,17.17
2022-12-08T08:27:22.803Z,16.80
2022-12-08T08:29:50.221Z,17.00
2022-12-08T08:32:17.610Z,17.27
2022-12-08T08:34:44.913Z,17.60
2022-12-08T08:37:12.110Z,18.58
2022-12-08T08:39:39.435Z,18.20
2022-12-08T08:42:06.612Z,22.38
2022-12-08T08:44:33.894Z,21.17
2022-12-08T08:47:02.665Z,17.65
2022-12-08T08:49:29.869Z,18.30
2022-12-08T08:51:57.569Z,17.27
2022-12-08T08:54:24.772Z,18.48
2022-12-08T08:56:52.681Z,18.50
2022-12-08T08:59:19.937Z,17.98
2022-12-08T09:01:48.170Z,18.40
2022-12-08T09:04:15.879Z,18.10
2022-12-08T09:06:44.158Z,18.23
2022-12-08T09:09:12.157Z,17.02
2022-12-08T09:11:39.446Z,18.50
2022-12-08T09:14:07.355Z,17.48
2022-12-08T09:16:40.403Z,17.73
2022-12-08T09:19:09.442Z,18.25
2022-12-08T09:21:36.759Z,17.65
2022-12-08T09:24:04.186Z,17.90
2022-12-08T09:26:31.423Z,15.63
2022-12-08T09:28:58.727Z,17.88
2022-12-08T09:31:26.112Z,15.10
2022-12-08T09:33:53.796Z,15.30
2022-12-08T09:36:21.348Z,13.60
2022-12-08T09:38:50.247Z,14.40
2022-12-08T09:41:24.356Z,14.60
2022-12-08T09:43:51.668Z,14.32
2022-12-08T09:46:19.436Z,12.90
2022-12-08T09:48:55.671Z,13.15
2022-12-08T09:51:28.046Z,12.88
2022-12-08T09:54:19.352Z,12.38
2022-12-08T09:56:47.829Z,12.93
2022-12-08T09:59:24.500Z,13.07
2022-12-08T10:01:52.769Z,13.35
2022-12-08T10:04:26.301Z,13.30
2022-12-08T10:07:30.767Z,14.70
2022-12-08T10:10:27.530Z,13.40
2022-12-08T10:13:08.606Z,13.50
2022-12-08T10:16:01.001Z,12.85
2022-12-08T10:18:33.061Z,13.15
2022-12-08T10:21:13.701Z,13.70
2022-12-08T10:23:45.353Z,14.65
2022-12-08T10:26:15.441Z,14.38
2022-12-08T10:31:21.988Z,13.13
2022-12-08T10:34:00.541Z,13.88
2022-12-08T10:36:51.877Z,14.10
2022-12-08T10:39:40.289Z,14.77
2022-12-08T10:42:22.150Z,16.30
2022-12-08T10:45:08.510Z,13.82
2022-12-08T10:47:38.267Z,15.88
2022-12-08T10:50:36.992Z,14.45
2022-12-08T10:53:07.314Z,15.30
2022-12-08T10:56:11.718Z,17.35
2022-12-08T10:58:40.978Z,15.73
2022-12-08T11:01:14.114Z,15.13
2022-12-08T11:03:47.640Z,15.35
2022-12-08T11:06:20.743Z,15.43
2022-12-08T11:09:03.377Z,14.73
2022-12-08T11:11:39.574Z,15.60
2022-12-08T11:14:08.317Z,14.45
2022-12-08T11:16:36.044Z,16.55
2022-12-08T11:19:06.692Z,15.55
2022-12-08T11:21:37.309Z,15.75
2022-12-08T11:24:21.972Z,15.50
2022-12-08T11:27:01.149Z,17.05
2022-12-08T11:29:29.356Z,20.27
2022-12-08T11:32:06.175Z,18.83
2022-12-08T11:34:39.589Z,17.45
2022-12-08T11:37:11.266Z,17.77
2022-12-08T11:39:43.979Z,18.10
2022-12-08T11:42:13.417Z,18.45
2022-12-08T11:44:57.920Z,17.65
2022-12-08T11:47:31.830Z,16.27
2022-12-08T11:50:25.718Z,16.55
2022-12-08T11:52:53.644Z,16.83
2022-12-08T11:55:48.145Z,17.38
2022-12-08T11:58:21.655Z,18.77
2022-12-08T12:00:49.715Z,20.77
2022-12-08T12:03:37.399Z,18.27
2022-12-08T12:06:37.608Z,25.33
2022-12-08T12:09:10.084Z,26.75
2022-12-08T12:12:13.810Z,24.27
2022-12-08T12:17:42.257Z,31.05
2022-12-08T12:20:20.258Z,37.08
2022-12-08T12:22:51.466Z,27.20
2022-12-08T12:25:24.450Z,21.33
2022-12-08T12:27:57.909Z,22.02
2022-12-08T12:30:27.299Z,19.30
2022-12-08T12:32:57.654Z,20.10
2022-12-08T12:35:33.678Z,18.83
2022-12-08T12:38:48.860Z,16.70
2022-12-08T12:41:25.521Z,18.35
2022-12-08T12:44:29.531Z,18.38
2022-12-08T12:47:02.659Z,38.92
2022-12-08T12:49:38.956Z,26.02
2022-12-08T12:52:15.288Z,20.73
2022-12-08T12:55:11.370Z,25.63
2022-12-08T12:57:40.406Z,22.73
2022-12-08T13:00:24.575Z,18.48
2022-12-08T13:02:53.764Z,19.27
2022-12-08T13:05:23.438Z,19.13
2022-12-08T13:08:00.365Z,20.20
2022-12-08T13:10:30.781Z,21.02
2022-12-08T13:13:10.714Z,22.13
2022-12-08T13:15:39.298Z,22.33
2022-12-08T13:18:07.978Z,25.60
2022-12-08T13:20:42.832Z,23.90
2022-12-08T13:23:27.597Z,23.52
2022-12-08T13:26:24.942Z,23.00
2022-12-08T13:29:04.290Z,20.70
2022-12-08T13:34:06.448Z,19.85
2022-12-08T13:36:38.052Z,21.25
2022-12-08T13:39:06.344Z,22.85
2022-12-08T13:41:53.996Z,22.55
2022-12-08T13:47:33.927Z,20.42
2022-12-08T13:58:50.154Z,20.20
2022-12-08T14:01:22.317Z,21.23
2022-12-08T14:04:22.040Z,20.88
2022-12-08T14:06:45.969Z,21.20
2022-12-08T14:09:16.550Z,20.77
2022-12-08T14:11:47.850Z,22.05
2022-12-08T14:14:45.820Z,20.98
2022-12-08T14:17:22.319Z,20.20
2022-12-08T14:20:12.921Z,20.17
2022-12-08T14:22:41.179Z,19.55
2022-12-08T14:25:14.436Z,21.33
2022-12-08T14:27:42.018Z,21.25
2022-12-08T14:30:13.368Z,20.40
2022-12-08T14:32:48.744Z,21.58
2022-12-08T14:35:20.888Z,21.88
2022-12-08T14:37:49.392Z,22.17
2022-12-08T14:40:22.993Z,21.48
2022-12-08T14:42:52.428Z,21.58
2022-12-08T14:45:20.097Z,21.13
2022-12-08T14:47:48.626Z,20.42
2022-12-08T14:50:39.572Z,20.70
2022-12-08T14:53:17.494Z,20.15
2022-12-08T14:55:46.493Z,20.33
2022-12-08T14:58:32.051Z,18.63
2022-12-08T15:01:00.226Z,19.48
2022-12-08T15:03:29.060Z,19.85
2022-12-08T15:05:58.547Z,18.33
2022-12-08T15:08:26.069Z,19.33
2022-12-08T15:11:21.685Z,19.17
2022-12-08T15:13:51.552Z,17.92
2022-12-08T15:16:38.695Z,18.15
2022-12-08T15:19:16.509Z,19.38
2022-12-08T15:21:45.243Z,19.08
2022-12-08T15:24:13.714Z,19.67
2022-12-08T15:26:46.858Z,18.60
2022-12-08T15:29:25.499Z,20.38
2022-12-08T15:31:55.631Z,34.83
2022-12-08T15:36:51.456Z,17.60
2022-12-08T15:39:21.358Z,18.80
2022-12-08T15:41:48.647Z,19.23
2022-12-08T15:44:15.858Z,19.60
2022-12-08T15:46:43.143Z,19.48
2022-12-08T15:49:17.952Z,18.88
2022-12-08T15:51:45.516Z,19.77
2022-12-08T15:54:13.210Z,18.90
2022-12-08T15:57:18.051Z,19.92
2022-12-08T15:59:39.737Z,18.77
2022-12-08T16:02:08.858Z,19.40
2022-12-08T16:07:26.546Z,24.35
2022-12-08T16:09:54.573Z,22.13
2022-12-08T16:13:48.023Z,21.13
2022-12-08T16:15:51.767Z,21.77
2022-12-08T16:18:26.231Z,21.00
2022-12-08T16:23:44.270Z,19.17
2022-12-08T16:26:28.945Z,20.33
2022-12-08T16:29:05.681Z,20.30
2022-12-08T16:31:33.181Z,20.38
2022-12-08T16:34:00.697Z,22.48
2022-12-08T16:36:27.910Z,21.92
2022-12-08T16:38:55.166Z,23.27
2022-12-08T16:41:41.208Z,21.33
2022-12-08T16:44:08.522Z,23.33
2022-12-08T16:46:36.965Z,22.02
2022-12-08T16:49:04.847Z,22.95
2022-12-08T16:51:32.137Z,22.60
2022-12-08T16:53:59.551Z,23.65
2022-12-08T16:56:32.735Z,22.38
2022-12-08T16:59:01.840Z,23.10
2022-12-08T17:01:29.344Z,24.38
2022-12-08T17:04:29.141Z,23.70
2022-12-08T17:06:44.457Z,24.65
2022-12-08T17:09:11.931Z,24.58
2022-12-08T17:11:42.915Z,23.88
2022-12-08T17:14:12.781Z,23.77
2022-12-08T17:16:40.478Z,23.77
2022-12-08T17:19:07.830Z,24.58
2022-12-08T17:21:35.792Z,23.08
2022-12-08T17:24:03.226Z,23.67
2022-12-08T17:26:30.630Z,23.33
2022-12-08T17:29:00.998Z,23.25
2022-12-08T17:31:31.222Z,23.98
2022-12-08T17:34:00.795Z,22.60
2022-12-08T17:36:28.203Z,23.20
2022-12-08T17:38:56.427Z,24.15
2022-12-08T17:41:23.674Z,23.33
2022-12-08T17:43:51.009Z,23.77
2022-12-08T17:46:19.289Z,24.40
2022-12-08T17:48:46.887Z,25.85
2022-12-08T17:51:14.912Z,23.95
2022-12-08T17:53:42.300Z,24.40
2022-12-08T17:56:19.784Z,24.10
2022-12-08T17:58:51.329Z,25.25
2022-12-08T18:01:23.397Z,25.83
2022-12-08T18:03:51.084Z,25.42
2022-12-08T18:06:18.340Z,24.92
2022-12-08T18:08:45.636Z,24.00
2022-12-08T18:11:16.076Z,24.63
2022-12-08T18:13:43.441Z,25.30
2022-12-08T18:16:10.763Z,25.55
2022-12-08T18:18:38.099Z,24.23
2022-12-08T18:21:05.635Z,25.85
2022-12-08T18:23:33.293Z,27.27
2022-12-08T18:26:00.742Z,30.05
2022-12-08T18:28:28.071Z,28.98
2022-12-08T18:30:55.507Z,29.88
2022-12-08T18:33:22.914Z,28.58
2022-12-08T18:35:50.304Z,30.70
2022-12-08T18:38:17.508Z,31.08
2022-12-08T18:40:45.186Z,33.13
2022-12-08T18:43:12.505Z,32.15
2022-12-08T18:45:39.907Z,31.58
2022-12-08T18:48:09.081Z,32.03
2022-12-08T18:50:36.444Z,34.80
2022-12-08T18:53:03.771Z,34.20
2022-12-08T18:55:31.171Z,33.28
2022-12-08T18:57:58.476Z,33.35
2022-12-08T19:00:25.791Z,34.38
2022-12-08T19:02:53.288Z,33.65
2022-12-08T19:05:20.667Z,32.28
2022-12-08T19:07:48.102Z,33.33
2022-12-08T19:10:15.510Z,33.70
2022-12-08T19:12:42.945Z,34.25
2022-12-08T19:15:10.809Z,34.58
2022-12-08T19:17:38.080Z,37.17
2022-12-08T19:20:06.766Z,31.77
2022-12-08T19:22:34.364Z,30.20
2022-12-08T19:25:01.815Z,29.70
2022-12-08T19:27:29.715Z,27.65
2022-12-08T19:29:57.044Z,35.47
2022-12-08T19:32:24.609Z,28.80
2022-12-08T19:34:52.456Z,29.95
2022-12-08T19:37:19.796Z,25.38
2022-12-08T19:40:06.225Z,25.40
2022-12-08T19:42:52.284Z,23.10
2022-12-08T19:45:21.685Z,22.83
2022-12-08T19:47:49.285Z,24.17
2022-12-08T19:50:35.835Z,22.52
2022-12-08T19:53:08.977Z,23.52
2022-12-08T19:55:36.703Z,22.52
2022-12-08T19:58:04.767Z,22.17
2022-12-08T20:00:32.852Z,25.17
2022-12-08T20:03:02.092Z,23.27
2022-12-08T20:05:31.041Z,23.27
2022-12-08T20:07:58.503Z,23.48
2022-12-08T20:10:28.236Z,24.05
2022-12-08T20:13:16.187Z,23.88
2022-12-08T20:15:43.594Z,24.98
2022-12-08T20:18:12.218Z,25.45
2022-12-08T20:20:40.193Z,23.98
2022-12-08T20:23:07.712Z,23.85
2022-12-08T20:25:37.549Z,23.58
2022-12-08T20:28:04.971Z,23.77
2022-12-08T20:30:32.464Z,23.30
2022-12-08T20:32:59.882Z,21.67
2022-12-08T20:35:27.253Z,23.17
2022-12-08T20:37:54.518Z,22.15
2022-12-08T20:40:21.801Z,21.40
2022-12-08T20:42:49.288Z,22.17
2022-12-08T20:45:16.577Z,22.33
2022-12-08T20:47:44.044Z,22.38
2022-12-08T20:50:11.894Z,22.08
2022-12-08T20:52:39.590Z,21.50
2022-12-08T20:55:08.120Z,20.45
2022-12-08T20:57:35.544Z,21.83
2022-12-08T21:00:04.411Z,23.10
2022-12-08T21:02:32.338Z,21.70
2022-12-08T21:04:59.815Z,22.13
2022-12-08T21:07:27.231Z,22.38
2022-12-08T21:09:54.790Z,22.52
2022-12-08T21:12:22.184Z,20.08
2022-12-08T21:14:49.485Z,22.20
2022-12-08T21:17:16.993Z,22.92
2022-12-08T21:19:44.516Z,21.75
2022-12-08T21:22:12.593Z,22.08
2022-12-08T21:24:40.094Z,21.67
2022-12-08T21:27:07.507Z,21.35
2022-12-08T21:29:34.933Z,21.52
2022-12-08T21:32:02.259Z,23.10
2022-12-08T21:34:34.118Z,22.27
2022-12-08T21:37:02.468Z,22.95
2022-12-08T21:39:29.963Z,23.95
2022-12-08T21:42:20.390Z,24.27
2022-12-08T21:44:49.929Z,30.98
2022-12-08T21:47:17.343Z,32.67
2022-12-08T21:49:44.738Z,24.70
2022-12-08T21:52:12.005Z,23.10
2022-12-08T21:54:39.369Z,23.67
2022-12-08T21:57:06.818Z,25.13
2022-12-08T21:59:34.415Z,24.38
2022-12-08T22:02:02.198Z,23.38
2022-12-08T22:04:30.164Z,22.95
2022-12-08T22:06:57.711Z,21.80
2022-12-08T22:09:25.113Z,23.27
2022-12-08T22:11:52.451Z,22.80
2022-12-08T22:14:20.106Z,22.02
2022-12-08T22:16:47.544Z,23.40
2022-12-08T22:19:15.262Z,22.20
2022-12-08T22:21:43.228Z,22.48
2022-12-08T22:24:10.698Z,23.08
2022-12-08T22:26:38.180Z,23.40
2022-12-08T22:29:05.612Z,23.88
2022-12-08T22:31:33.051Z,24.10
2022-12-08T22:34:00.382Z,24.17
2022-12-08T22:36:28.182Z,24.05
2022-12-08T22:38:55.816Z,23.92
2022-12-08T22:41:23.847Z,23.67
2022-12-08T22:43:51.440Z,23.60
2022-12-08T22:46:21.730Z,28.25
2022-12-08T22:48:49.811Z,28.77
2022-12-08T22:51:18.169Z,30.42
2022-12-08T22:53:46.101Z,30.25
2022-12-08T22:56:14.678Z,29.90
2022-12-08T22:58:41.992Z,31.45
2022-12-08T23:01:14.764Z,31.05
2022-12-08T23:03:42.408Z,30.02
2022-12-08T23:06:13.145Z,30.98
2022-12-08T23:08:40.752Z,28.20
2022-12-08T23:11:08.193Z,31.08
2022-12-08T23:13:37.409Z,29.27
2022-12-08T23:16:05.639Z,29.08
2022-12-08T23:18:32.920Z,30.77
2022-12-08T23:21:06.571Z,29.85
2022-12-08T23:23:34.128Z,29.95
2022-12-08T23:26:01.679Z,28.65
2022-12-08T23:28:29.301Z,28.10
2022-12-08T23:30:56.795Z,30.05
2022-12-08T23:33:24.293Z,29.95
2022-12-08T23:35:59.130Z,29.17
2022-12-08T23:38:26.458Z,28.10
2022-12-08T23:40:54.227Z,29.35
2022-12-08T23:43:21.618Z,26.75
2022-12-08T23:45:49.030Z,26.50
2022-12-08T23:48:16.854Z,26.63
2022-12-08T23:50:44.304Z,26.73
2022-12-08T23:53:11.595Z,27.85
2022-12-08T23:55:39.582Z,27.40
2022-12-08T23:58:06.899Z,27.95
